Time;durP1;ratioP1;P1;durP2;ratioP2;P2;SDS_P1;SDS_P2;PMS_P1;PMS_P2;Temp;Humidity;BMP_temperature;BMP_pressure;BME280_temperature;BME280_humidity;BME280_pressure;Samples;Min_cycle;Max_cycle;Signal;HPM_P1;HPM_P2
2022/09/28 00:00:40;;;;;;;13.50;10.00;;;14.10;99.90;;;14.26;83.09;93976.53;5027161;28;20495;-56
2022/09/28 00:03:09;;;;;;;16.50;10.40;;;14.10;99.90;;;14.28;83.12;93974.53;5026861;28;20457;-56
2022/09/28 00:05:36;;;;;;;16.20;11.10;;;14.10;99.90;;;14.32;83.29;93971.31;5026839;28;20476;-56
2022/09/28 00:08:04;;;;;;;15.37;10.37;;;14.20;99.90;;;14.33;82.66;93961.59;5027988;28;20499;-56
2022/09/28 00:10:31;;;;;;;19.30;11.27;;;14.10;99.90;;;14.38;82.97;93971.63;5024648;28;20469;-56
2022/09/28 00:13:00;;;;;;;14.60;11.97;;;14.20;99.90;;;14.41;82.56;93971.25;5027203;28;20954;-53
2022/09/28 00:15:28;;;;;;;15.63;10.80;;;14.20;99.90;;;14.41;82.45;93972.06;5026817;28;20476;-55
2022/09/28 00:17:55;;;;;;;15.00;10.70;;;14.20;99.90;;;14.43;82.35;93961.28;5027171;28;20540;-57
2022/09/28 00:20:23;;;;;;;16.70;10.97;;;14.20;99.90;;;14.43;82.37;93963.94;5026879;28;20894;-54
2022/09/28 00:22:51;;;;;;;13.07;9.83;;;14.30;99.90;;;14.45;82.15;93969.84;5026552;28;20457;-56
2022/09/28 00:25:20;;;;;;;13.40;9.57;;;14.30;99.90;;;14.44;82.39;93962.94;5026629;28;20550;-56
2022/09/28 00:27:50;;;;;;;12.97;9.70;;;14.30;99.90;;;14.45;82.29;93964.56;5026613;28;20457;-57
2022/09/28 00:30:17;;;;;;;11.63;9.97;;;14.30;99.90;;;14.44;81.83;93973.50;5026285;28;20476;-54
2022/09/28 00:32:45;;;;;;;17.87;11.50;;;14.30;99.90;;;14.40;81.65;93961.66;5026643;28;20965;-57
2022/09/28 00:35:12;;;;;;;17.30;10.47;;;14.20;99.90;;;14.38;81.85;93963.69;5026903;28;20477;-53
2022/09/28 00:37:40;;;;;;;21.60;13.63;;;14.20;99.90;;;14.35;81.91;93968.31;5026716;28;20935;-54
2022/09/28 00:40:09;;;;;;;25.20;15.33;;;14.20;99.90;;;14.34;81.63;93961.41;5026580;28;20495;-56
2022/09/28 00:42:36;;;;;;;27.63;15.40;;;14.20;99.90;;;14.34;81.71;93966.69;5026501;28;20452;-56
2022/09/28 00:45:07;;;;;;;24.63;14.43;;;14.20;99.90;;;14.34;81.67;93964.03;5026284;28;20547;-56
2022/09/28 00:47:45;;;;;;;23.57;15.00;;;14.20;99.90;;;14.31;81.45;93959.13;5022679;28;20862;-56
2022/09/28 00:50:18;;;;;;;23.73;14.13;;;14.20;99.90;;;14.29;81.50;93955.00;5025725;28;20485;-56
2022/09/28 00:52:49;;;;;;;21.47;13.30;;;14.20;99.90;;;14.26;81.72;93956.19;5023692;28;20456;-56
2022/09/28 00:55:21;;;;;;;22.40;13.83;;;14.10;99.90;;;14.24;81.20;93952.94;5026312;28;20824;-55
2022/09/28 00:57:51;;;;;;;24.60;14.10;;;14.10;99.90;;;14.23;81.27;93955.75;5022995;28;20539;-54
2022/09/28 01:00:18;;;;;;;18.40;11.00;;;14.10;99.90;;;14.21;81.13;93957.78;5026228;28;20492;-54
2022/09/28 01:02:45;;;;;;;13.37;10.10;;;14.00;99.90;;;14.19;80.86;93957.13;5025814;28;20952;-57
2022/09/28 01:05:12;;;;;;;17.40;10.23;;;14.00;99.90;;;14.17;80.95;93962.59;5026260;28;20476;-57
2022/09/28 01:07:40;;;;;;;15.83;10.23;;;14.00;99.90;;;14.14;80.73;93958.50;5025859;28;20448;-55
2022/09/28 01:10:09;;;;;;;12.63;8.47;;;14.00;99.90;;;14.14;80.91;93968.25;5022836;28;20555;-55
2022/09/28 01:12:36;;;;;;;9.07;7.50;;;14.00;99.90;;;14.11;80.60;93969.44;5024195;28;20459;-57
2022/09/28 01:15:05;;;;;;;7.57;4.20;;;14.00;99.90;;;14.09;79.97;93968.00;5025886;28;20472;-55
2022/09/28 01:17:40;;;;;;;6.10;4.70;;;13.90;99.90;;;14.03;79.22;93960.78;5025763;28;20948;-56
2022/09/28 01:20:51;;;;;;;4.30;3.90;;;13.90;99.90;;;13.95;79.16;93969.63;5023669;28;20487;-54
2022/09/28 01:23:43;;;;;;;4.57;4.00;;;13.90;99.90;;;13.89;79.24;93980.94;5022873;28;20480;-57
2022/09/28 01:26:44;;;;;;;11.13;4.60;;;13.80;99.90;;;13.80;78.96;93978.41;5023488;28;21036;-57
2022/09/28 01:29:17;;;;;;;4.23;4.00;;;13.70;99.90;;;13.75;78.91;93970.16;5025828;28;20476;-56
2022/09/28 01:31:47;;;;;;;5.70;4.97;;;13.60;99.90;;;13.72;78.61;93975.00;5026224;28;20449;-56
2022/09/28 01:34:17;;;;;;;5.83;5.27;;;13.60;99.90;;;13.68;78.95;93986.94;5026409;28;20469;-57
2022/09/28 01:36:47;;;;;;;5.63;4.40;;;13.50;99.90;;;13.61;78.60;93977.06;5025887;28;20806;-56
2022/09/28 01:39:17;;;;;;;10.53;4.70;;;13.50;99.90;;;13.56;78.73;93968.88;5025908;28;20473;-56
2022/09/28 01:41:47;;;;;;;9.13;5.93;;;13.40;99.90;;;13.51;78.54;93973.91;5023993;28;20480;-55
2022/09/28 01:44:16;;;;;;;11.33;5.10;;;13.40;99.90;;;13.46;78.67;93973.59;5025321;28;21051;-55
2022/09/28 01:46:45;;;;;;;4.63;4.23;;;13.40;99.90;;;13.42;78.79;93980.25;5025434;28;20461;-56
2022/09/28 01:49:16;;;;;;;4.63;4.20;;;13.30;99.90;;;13.38;78.68;93974.50;5025533;28;21040;-55
2022/09/28 01:51:46;;;;;;;5.57;4.53;;;13.20;99.90;;;13.36;78.94;93973.03;5024374;28;20447;-55
2022/09/28 01:54:14;;;;;;;6.13;4.37;;;13.20;99.90;;;13.34;78.60;93972.38;5021941;28;20815;-55
2022/09/28 01:56:45;;;;;;;5.70;4.40;;;13.20;99.90;;;13.30;78.65;93979.00;5025388;28;20449;-56
2022/09/28 01:59:14;;;;;;;5.77;4.40;;;13.20;99.90;;;13.24;78.93;93976.06;5025433;28;20480;-56
2022/09/28 02:01:46;;;;;;;4.90;4.50;;;13.10;99.90;;;13.22;79.12;93980.72;5025857;28;20972;-56
2022/09/28 02:04:15;;;;;;;5.20;4.20;;;13.10;99.90;;;13.20;79.01;93985.34;5025227;28;20473;-56
2022/09/28 02:06:45;;;;;;;4.77;4.33;;;13.10;99.90;;;13.17;79.36;93983.06;5022754;28;20456;-57
2022/09/28 02:09:15;;;;;;;4.70;4.30;;;13.00;99.90;;;13.18;79.41;93984.69;5025414;28;20477;-56
2022/09/28 02:11:47;;;;;;;4.90;4.40;;;13.10;99.90;;;13.17;79.51;93988.34;5025375;28;20476;-56
2022/09/28 02:14:15;;;;;;;11.67;4.57;;;13.10;99.90;;;13.18;79.57;93986.53;5025048;28;20488;-56
2022/09/28 02:16:44;;;;;;;7.80;3.60;;;13.00;99.90;;;13.16;79.31;93984.06;5025465;28;20468;-54
2022/09/28 02:19:13;;;;;;;7.70;4.20;;;13.00;99.90;;;13.16;79.62;93970.88;5025282;28;20496;-57
2022/09/28 02:21:42;;;;;;;4.70;4.30;;;13.00;99.90;;;13.17;80.02;93983.06;5025331;28;20492;-56
2022/09/28 02:24:14;;;;;;;5.07;4.57;;;13.10;99.90;;;13.18;79.62;93976.78;5025020;28;20560;-55
2022/09/28 02:26:43;;;;;;;4.30;4.00;;;13.10;99.90;;;13.18;79.63;93981.25;5025658;28;20503;-57
2022/09/28 02:29:12;;;;;;;4.23;3.93;;;13.10;99.90;;;13.17;79.83;93985.72;5028676;28;20499;-57
2022/09/28 02:31:39;;;;;;;7.80;4.27;;;13.00;99.90;;;13.17;79.50;93985.72;5028957;28;20452;-54
2022/09/28 02:34:06;;;;;;;4.00;3.70;;;13.00;99.90;;;13.18;79.79;93984.69;5029115;28;20476;-57
2022/09/28 02:36:33;;;;;;;8.97;5.20;;;13.10;99.90;;;13.18;79.64;93995.25;5029118;28;20573;-55
2022/09/28 02:39:01;;;;;;;5.63;4.17;;;13.00;99.90;;;13.17;79.59;93983.06;5028765;28;20535;-57
2022/09/28 02:41:41;;;;;;;7.30;5.83;;;13.00;99.90;;;13.14;79.10;93991.34;5028670;28;20488;-55
2022/09/28 02:44:18;;;;;;;4.37;3.63;;;13.00;99.90;;;13.10;79.35;93976.84;5028781;28;20460;-55
2022/09/28 02:46:49;;;;;;;7.93;4.77;;;13.00;99.90;;;13.08;79.13;93984.94;5028877;28;20968;-55
2022/09/28 02:49:24;;;;;;;12.53;4.73;;;13.00;99.90;;;13.09;79.72;93985.78;5025870;28;20475;-54
2022/09/28 02:52:15;;;;;;;6.57;4.63;;;13.00;99.90;;;13.09;79.68;93980.50;5028356;28;20525;-55
2022/09/28 02:55:13;;;;;;;7.00;4.80;;;13.00;99.90;;;13.08;79.89;93986.78;5027531;28;20480;-56
2022/09/28 02:57:51;;;;;;;6.87;5.10;;;13.00;99.90;;;13.07;79.81;93988.59;5025833;28;20445;-57
2022/09/28 03:00:21;;;;;;;4.63;4.23;;;12.90;99.90;;;13.07;79.32;93980.69;5028499;28;20468;-56
2022/09/28 03:02:55;;;;;;;12.10;4.93;;;12.90;99.90;;;13.07;79.82;93996.53;5028326;28;21129;-57
2022/09/28 03:05:29;;;;;;;8.73;4.63;;;13.00;99.90;;;13.09;79.57;93988.44;5028494;28;20555;-56
2022/09/28 03:07:59;;;;;;;8.53;5.07;;;13.00;99.90;;;13.09;79.63;93996.34;5028206;28;20453;-54
2022/09/28 03:10:33;;;;;;;12.30;5.60;;;13.00;99.90;;;13.09;80.13;93999.81;5026096;28;20488;-57
2022/09/28 03:13:00;;;;;;;6.73;4.07;;;13.00;99.90;;;13.13;79.80;94015.28;5027949;28;20452;-55
2022/09/28 03:15:30;;;;;;;8.93;5.50;;;13.00;99.90;;;13.15;79.94;94016.75;5028081;28;20472;-55
2022/09/28 03:17:57;;;;;;;8.70;5.07;;;13.00;99.90;;;13.16;79.64;94023.66;5024534;28;20449;-54
2022/09/28 03:20:24;;;;;;;8.20;5.07;;;13.00;99.90;;;13.17;79.75;94017.41;5027776;28;20538;-56
2022/09/28 03:22:52;;;;;;;10.90;5.13;;;13.10;99.90;;;13.18;79.66;94016.38;5028074;28;20562;-56
2022/09/28 03:25:19;;;;;;;38.13;6.53;;;13.10;99.90;;;13.19;79.65;94028.59;5023621;28;20468;-56
2022/09/28 03:27:46;;;;;;;9.80;4.93;;;13.10;99.90;;;13.20;79.50;94024.97;5027705;28;20965;-56
2022/09/28 03:30:14;;;;;;;7.33;6.50;;;13.10;99.90;;;13.16;79.25;94023.66;5027672;28;20472;-56
2022/09/28 03:32:42;;;;;;;9.30;6.30;;;13.10;99.90;;;13.11;79.33;94022.56;5027717;28;20476;-56
2022/09/28 03:35:10;;;;;;;7.00;6.40;;;13.00;99.90;;;13.08;79.62;94029.81;5027602;28;21162;-56
2022/09/28 03:37:37;;;;;;;5.80;5.30;;;13.00;99.90;;;13.08;80.07;94031.66;5027471;28;20453;-56
2022/09/28 03:40:06;;;;;;;7.47;6.83;;;13.00;99.90;;;13.11;79.83;94030.50;5026956;28;21005;-57
2022/09/28 03:42:35;;;;;;;9.07;6.53;;;13.00;99.90;;;13.10;79.77;94027.00;5027426;28;20488;-57
2022/09/28 03:45:03;;;;;;;8.00;6.47;;;13.00;99.90;;;13.11;80.03;94020.75;5026751;28;20534;-55
2022/09/28 03:47:30;;;;;;;11.60;6.30;;;13.00;99.90;;;13.13;80.17;94024.03;5027715;28;20705;-56
2022/09/28 03:49:59;;;;;;;6.73;5.97;;;13.00;99.90;;;13.14;79.93;94025.66;5027188;28;20552;-55
2022/09/28 03:52:26;;;;;;;9.27;6.37;;;13.00;99.90;;;13.17;80.29;94030.59;5027323;28;20555;-56
2022/09/28 03:54:53;;;;;;;9.60;6.60;;;13.00;99.90;;;13.18;80.49;94026.94;5027345;28;20977;-55
2022/09/28 03:57:21;;;;;;;11.10;6.73;;;13.10;99.90;;;13.21;80.72;94029.22;5026812;28;20539;-57
2022/09/28 03:59:48;;;;;;;7.33;6.10;;;13.10;99.90;;;13.23;80.16;94023.78;5027017;28;20476;-55
2022/09/28 04:02:15;;;;;;;11.13;5.67;;;13.10;99.90;;;13.25;80.58;94030.53;5026703;28;20562;-55
2022/09/28 04:04:42;;;;;;;6.30;5.70;;;13.10;99.90;;;13.31;80.82;94031.66;5023314;28;21106;-55
2022/09/28 04:07:11;;;;;;;6.17;5.40;;;13.10;99.90;;;13.36;80.69;94029.31;5026801;28;20503;-55
2022/09/28 04:09:38;;;;;;;6.23;5.63;;;13.20;99.90;;;13.41;80.58;94034.06;5023900;28;20480;-56
2022/09/28 04:12:06;;;;;;;13.37;6.47;;;13.30;99.90;;;13.48;80.55;94042.09;5026975;28;20456;-56
2022/09/28 04:14:34;;;;;;;9.13;6.27;;;13.30;99.90;;;13.53;80.79;94035.28;5027418;28;20465;-57
2022/09/28 04:17:01;;;;;;;6.70;6.00;;;13.40;99.90;;;13.57;80.76;94026.00;5029188;28;20870;-56
2022/09/28 04:19:28;;;;;;;19.10;6.17;;;13.40;99.90;;;13.64;80.34;94031.41;5026437;28;20480;-56
2022/09/28 04:21:55;;;;;;;8.40;6.90;;;13.50;99.90;;;13.70;80.23;94030.69;5026242;28;21073;-57
2022/09/28 04:24:24;;;;;;;9.43;5.63;;;13.60;99.90;;;13.74;80.04;94015.28;5026596;28;20507;-56
2022/09/28 04:29:14;;;;;;;8.27;6.30;;;13.60;99.90;;;13.79;80.28;94023.50;5022950;28;20444;-54
2022/09/28 04:29:38;;;;;;;10.90;6.57;;;13.60;99.90;;;13.84;80.33;94025.59;5022704;28;20457;-56
2022/09/28 04:32:05;;;;;;;9.20;6.80;;;13.70;99.90;;;13.87;80.30;94034.00;5025506;28;20570;-56
2022/09/28 04:34:33;;;;;;;10.67;7.23;;;13.70;99.90;;;13.91;80.17;94037.91;5026122;28;20531;-56
2022/09/28 04:37:00;;;;;;;14.40;6.77;;;13.80;99.90;;;13.95;79.89;94033.09;5026006;28;20472;-55
2022/09/28 04:39:29;;;;;;;14.00;8.20;;;13.80;99.90;;;13.96;79.79;94035.53;5025917;28;20480;-56
2022/09/28 04:41:56;;;;;;;8.10;7.30;;;13.80;99.90;;;13.98;79.66;94028.25;5026048;28;20488;-56
2022/09/28 04:44:24;;;;;;;15.27;7.40;;;13.80;99.90;;;14.02;79.63;94034.00;5026662;28;20538;-56
2022/09/28 04:46:51;;;;;;;14.57;7.07;;;13.90;99.90;;;14.09;79.83;94023.50;5026235;28;20457;-55
2022/09/28 04:49:18;;;;;;;10.53;6.73;;;13.90;99.90;;;14.18;79.96;94038.28;5025427;28;20469;-55
2022/09/28 04:51:46;;;;;;;10.10;7.80;;;14.00;99.90;;;14.27;79.90;94031.91;5024688;28;20530;-57
2022/09/28 04:54:13;;;;;;;18.00;8.00;;;14.10;99.90;;;14.36;79.41;94035.28;5024768;28;20469;-56
2022/09/28 04:56:41;;;;;;;16.07;7.07;;;14.20;99.90;;;14.47;79.29;94031.34;5024003;28;20456;-58
2022/09/28 04:59:11;;;;;;;10.43;7.30;;;14.30;99.90;;;14.54;79.05;94032.25;5024806;28;20484;-55
2022/09/28 05:01:38;;;;;;;11.30;7.20;;;14.40;99.90;;;14.58;78.62;94028.22;5025966;28;20492;-57
2022/09/28 05:04:06;;;;;;;13.03;8.23;;;14.40;99.90;;;14.60;78.20;94034.19;5024479;28;21120;-56
2022/09/28 05:06:33;;;;;;;13.40;7.23;;;14.50;99.90;;;14.60;77.92;94031.53;5025119;28;20463;-57
2022/09/28 05:09:00;;;;;;;8.87;6.30;;;14.50;99.90;;;14.58;77.93;94027.38;5024557;28;20483;-56
2022/09/28 05:11:27;;;;;;;9.80;6.87;;;14.50;99.90;;;14.56;78.04;94038.16;5025497;28;20456;-57
2022/09/28 05:13:56;;;;;;;12.80;6.20;;;14.40;99.90;;;14.57;77.76;94037.16;5026463;28;20548;-57
2022/09/28 05:16:24;;;;;;;10.37;5.13;;;14.40;99.90;;;14.59;77.53;94027.19;5025504;28;20460;-56
2022/09/28 05:18:55;;;;;;;6.87;5.60;;;14.40;99.90;;;14.60;77.58;94034.19;5024871;28;20498;-56
2022/09/28 05:21:24;;;;;;;5.73;5.23;;;14.40;99.90;;;14.60;77.07;94036.81;5025410;28;20770;-55
2022/09/28 05:23:51;;;;;;;13.70;5.50;;;14.40;99.90;;;14.61;77.17;94046.41;5024437;28;20452;-57
2022/09/28 05:26:19;;;;;;;10.53;6.60;;;14.50;99.90;;;14.62;76.93;94050.69;5024863;28;20918;-56
2022/09/28 05:28:46;;;;;;;9.93;6.20;;;14.50;99.90;;;14.65;76.83;94045.00;5025194;28;20460;-55
2022/09/28 05:31:15;;;;;;;7.20;5.70;;;14.50;99.90;;;14.66;76.71;94036.09;5024863;28;20457;-55
2022/09/28 05:33:42;;;;;;;8.60;5.90;;;14.50;99.90;;;14.68;76.78;94036.72;5024715;28;20953;-56
2022/09/28 05:36:10;;;;;;;10.10;5.90;;;14.50;99.90;;;14.69;76.65;94034.91;5025328;28;20480;-55
2022/09/28 05:38:37;;;;;;;6.90;5.53;;;14.50;99.90;;;14.74;76.58;94047.56;5024782;28;20536;-56
2022/09/28 05:41:05;;;;;;;20.53;6.37;;;14.60;99.90;;;14.78;76.48;94040.88;5025291;28;20456;-58
2022/09/28 05:43:32;;;;;;;6.07;5.47;;;14.60;99.90;;;14.86;76.43;94046.09;5024961;28;20495;-56
2022/09/28 05:46:00;;;;;;;9.90;5.20;;;14.70;99.90;;;14.97;76.30;94044.78;5025320;28;20496;-57
2022/09/28 05:48:28;;;;;;;10.13;6.87;;;14.70;99.90;;;15.16;76.01;94046.00;5025111;28;20452;-56
2022/09/28 05:50:57;;;;;;;10.10;5.57;;;14.90;99.90;;;15.39;76.07;94040.50;5025389;28;20855;-55
2022/09/28 05:53:24;;;;;;;17.90;6.27;;;15.10;99.90;;;15.70;75.40;94037.50;5021717;28;20933;-56
2022/09/28 05:55:51;;;;;;;26.77;5.57;;;15.40;99.90;;;16.06;74.47;94030.44;5025540;28;21084;-54
2022/09/28 05:58:19;;;;;;;6.80;5.67;;;15.70;99.90;;;16.36;74.30;94033.69;5024957;28;20499;-56
2022/09/28 06:00:46;;;;;;;10.10;5.43;;;16.00;99.90;;;16.59;73.33;94044.03;5024606;28;20544;-57
2022/09/28 06:03:14;;;;;;;22.33;5.80;;;16.20;99.90;;;16.74;73.06;94027.94;5028219;28;21111;-55
2022/09/28 06:05:42;;;;;;;16.23;5.13;;;16.40;99.90;;;16.88;72.95;94042.13;5028832;28;21043;-54
2022/09/28 06:08:10;;;;;;;10.77;5.20;;;16.50;99.90;;;17.00;72.58;94045.03;5024878;28;20457;-56
2022/09/28 06:10:37;;;;;;;17.80;6.30;;;16.70;99.90;;;17.08;71.58;94058.13;5027653;28;20486;-58
2022/09/28 06:13:05;;;;;;;8.80;5.30;;;16.80;99.90;;;17.13;71.52;94058.31;5028609;28;20510;-60
2022/09/28 06:15:33;;;;;;;8.13;5.13;;;16.90;99.90;;;17.16;71.21;94063.25;5028766;28;20476;-56
2022/09/28 06:18:02;;;;;;;5.93;4.73;;;16.90;99.90;;;17.18;70.68;94055.91;5029305;28;20452;-55
2022/09/28 06:20:31;;;;;;;8.13;4.23;;;16.90;99.90;;;17.20;70.67;94069.81;5028756;28;20817;-55
2022/09/28 06:23:00;;;;;;;14.07;4.10;;;17.00;99.90;;;17.16;70.57;94071.22;5025080;28;20488;-57
2022/09/28 06:25:27;;;;;;;14.50;4.60;;;17.00;99.90;;;17.15;70.09;94076.72;5028178;28;20495;-54
2022/09/28 06:27:56;;;;;;;3.90;3.60;;;17.00;99.90;;;17.13;70.51;94063.63;5028708;28;20510;-57
2022/09/28 06:30:25;;;;;;;4.63;4.23;;;16.90;99.90;;;17.13;70.18;94060.97;5026311;28;20469;-56
2022/09/28 06:32:55;;;;;;;4.00;3.80;;;16.90;99.90;;;17.13;70.15;94058.31;5028797;28;20510;-57
2022/09/28 06:35:22;;;;;;;4.00;3.70;;;16.90;99.90;;;17.12;70.31;94067.34;5028194;28;20487;-54
2022/09/28 06:37:50;;;;;;;7.83;3.83;;;16.90;99.90;;;17.27;70.70;94063.69;5028051;28;20452;-54
2022/09/28 06:40:18;;;;;;;4.40;3.60;;;17.10;99.90;;;17.67;69.99;94066.41;5028679;28;20476;-57
2022/09/28 06:42:54;;;;;;;4.70;3.70;;;17.30;99.90;;;17.99;69.14;94058.69;5028598;28;20488;-55
2022/09/28 06:45:24;;;;;;;5.83;4.10;;;17.60;99.90;;;18.12;68.36;94069.31;5026582;28;20483;-56
2022/09/28 06:47:55;;;;;;;6.70;4.70;;;17.80;99.90;;;18.14;68.13;94058.44;5028606;28;20953;-56
2022/09/28 06:50:23;;;;;;;11.73;4.80;;;17.80;99.90;;;18.10;68.18;94063.38;5028989;28;20567;-56
2022/09/28 06:52:52;;;;;;;9.43;5.00;;;17.90;99.90;;;18.05;68.12;94060.53;5028843;28;20885;-56
2022/09/28 06:55:20;;;;;;;5.57;5.10;;;17.80;99.90;;;18.30;68.44;94082.00;5027885;28;20526;-55
2022/09/28 06:57:48;;;;;;;5.97;5.37;;;18.10;99.90;;;18.87;67.44;94071.63;5028208;28;20563;-56
2022/09/28 07:00:16;;;;;;;7.43;5.23;;;18.50;99.90;;;19.50;66.60;94078.09;5027804;28;20484;-53
2022/09/28 07:02:43;;;;;;;7.10;5.30;;;19.00;99.90;;;20.23;65.21;94068.72;5027849;28;21031;-56
2022/09/28 07:05:13;;;;;;;5.43;4.27;;;19.60;99.90;;;20.74;63.23;94077.50;5028189;28;20492;-55
2022/09/28 07:07:43;;;;;;;8.73;4.67;;;20.10;99.90;;;20.87;62.51;94061.34;5028312;28;20449;-55
2022/09/28 07:10:11;;;;;;;8.57;4.03;;;20.40;99.90;;;20.81;62.04;94078.25;5022195;28;20523;-57
2022/09/28 07:12:40;;;;;;;4.83;4.43;;;20.50;99.90;;;20.77;61.93;94077.91;5027897;28;20812;-57
2022/09/28 07:15:09;;;;;;;10.70;4.20;;;20.50;99.90;;;20.90;62.15;94086.81;5028090;28;20485;-54
2022/09/28 07:17:36;;;;;;;8.93;4.03;;;20.60;99.90;;;21.33;62.57;94085.84;5027747;28;20449;-57
2022/09/28 07:20:04;;;;;;;6.93;4.57;;;21.00;99.90;;;22.08;62.09;94095.31;5027570;28;20993;-57
2022/09/28 07:22:31;;;;;;;8.83;4.33;;;21.60;99.90;;;22.95;61.11;94095.72;5026710;28;20499;-56
2022/09/28 07:24:59;;;;;;;8.43;3.97;;;22.40;99.90;;;23.84;58.64;94092.66;5023793;28;20473;-56
2022/09/28 07:27:26;;;;;;;11.20;4.47;;;23.20;99.50;;;24.68;56.80;94085.72;5027956;28;20453;-56
2022/09/28 07:29:57;;;;;;;4.00;3.70;;;24.10;97.70;;;25.45;55.42;94089.38;5029864;28;20479;-56
2022/09/28 07:32:25;;;;;;;7.93;3.50;;;25.00;96.30;;;26.21;53.95;94095.81;5023499;28;20860;-56
2022/09/28 07:34:52;;;;;;;8.13;4.20;;;25.80;94.80;;;26.89;51.66;94082.59;5027187;28;20472;-56
2022/09/28 07:37:20;;;;;;;18.17;4.20;;;26.50;92.40;;;27.52;49.86;94079.13;5027020;28;20656;-57
2022/09/28 07:42:31;;;;;;;10.23;4.30;;;27.90;88.80;;;28.66;47.27;94099.03;5024052;28;20569;-54
2022/09/28 07:45:00;;;;;;;10.00;5.07;;;28.40;82.20;;;28.70;46.09;94094.72;5027686;28;21449;-56
2022/09/28 07:47:27;;;;;;;12.00;5.80;;;28.70;76.70;;;28.45;44.66;94093.63;5027445;28;20452;-54
2022/09/28 07:49:56;;;;;;;9.57;3.70;;;28.40;71.60;;;28.17;46.04;94087.66;5027094;28;20471;-55
2022/09/28 07:52:24;;;;;;;8.33;4.30;;;28.20;74.50;;;28.11;46.44;94094.13;5027710;28;20468;-54
2022/09/28 07:54:52;;;;;;;6.40;4.20;;;28.10;73.50;;;28.03;45.72;94094.69;5027441;28;20959;-55
2022/09/28 07:57:20;;;;;;;7.97;5.00;;;27.90;73.20;;;28.04;45.59;94102.53;5023587;28;20480;-54
2022/09/28 07:59:48;;;;;;;8.47;4.77;;;27.90;72.90;;;28.17;45.16;94094.97;5026892;28;20534;-56
2022/09/28 08:02:18;;;;;;;12.20;4.57;;;28.00;70.30;;;28.18;45.41;94094.69;5026836;28;20865;-56
2022/09/28 08:04:46;;;;;;;8.80;5.10;;;28.00;71.60;;;28.24;45.18;94099.03;5023403;28;20602;-56
2022/09/28 08:07:14;;;;;;;7.63;5.10;;;28.00;70.80;;;28.34;44.37;94092.81;5026561;28;20459;-54
2022/09/28 08:09:42;;;;;;;7.50;4.63;;;28.20;69.70;;;28.53;45.20;94094.97;5027435;28;20464;-56
2022/09/28 08:12:09;;;;;;;11.57;6.43;;;28.40;69.80;;;28.81;44.67;94090.09;5023579;28;20452;-57
2022/09/28 08:14:36;;;;;;;16.00;6.30;;;28.60;68.80;;;29.09;43.49;94085.97;5027024;28;20484;-57
2022/09/28 08:17:04;;;;;;;5.57;5.00;;;28.80;68.20;;;29.31;43.07;94091.06;5027577;28;20459;-53
2022/09/28 08:22:14;;;;;;;15.50;6.00;;;29.20;64.60;;;29.59;42.15;94078.75;5025502;28;20444;-56
2022/09/28 08:24:41;;;;;;;8.97;6.13;;;29.30;63.40;;;29.68;41.89;94090.66;5025610;28;20487;-57
2022/09/28 08:27:09;;;;;;;13.87;7.50;;;29.40;63.10;;;29.81;41.72;94089.25;5026222;28;20456;-54
2022/09/28 08:29:36;;;;;;;10.17;5.30;;;29.40;63.20;;;30.03;41.37;94096.97;5027188;28;20476;-57
2022/09/28 08:32:06;;;;;;;11.80;6.00;;;29.60;62.00;;;30.31;41.11;94099.22;5026915;28;20452;-56
2022/09/28 08:34:35;;;;;;;12.87;6.00;;;29.80;62.00;;;30.55;40.07;94102.88;5026803;28;20856;-57
2022/09/28 08:37:03;;;;;;;9.87;6.00;;;30.00;60.20;;;30.72;39.90;94107.03;5025859;28;20512;-56
2022/09/28 08:39:30;;;;;;;15.70;5.90;;;30.20;60.20;;;30.90;40.03;94097.38;5026687;28;21078;-57
2022/09/28 08:42:07;;;;;;;14.83;7.43;;;30.40;59.90;;;31.08;39.38;94088.53;5026207;28;20737;-58
2022/09/28 08:44:40;;;;;;;13.80;6.83;;;30.60;59.10;;;31.14;38.88;94085.75;5023834;28;20257;-54
2022/09/28 08:48:42;;;;;;;13.50;7.87;;;30.70;57.70;;;31.09;38.89;94083.91;5026486;28;20471;-56
2022/09/28 08:50:01;;;;;;;20.30;7.60;;;30.60;57.60;;;31.19;38.54;94085.72;5025650;28;20283;-55
2022/09/28 08:52:32;;;;;;;12.40;5.10;;;30.70;57.40;;;31.29;38.79;94080.16;5026157;28;20274;-56
2022/09/28 08:55:02;;;;;;;18.03;6.13;;;30.70;57.40;;;31.51;38.91;94081.53;5025076;28;20237;-56
2022/09/28 08:57:32;;;;;;;12.80;6.90;;;30.90;56.90;;;31.70;38.04;94079.69;5024243;28;20201;-56
2022/09/28 08:59:59;;;;;;;19.30;6.43;;;31.10;56.60;;;31.91;38.12;94085.63;5026574;28;20240;-56
2022/09/28 09:02:32;;;;;;;9.13;5.90;;;31.30;56.00;;;32.11;37.90;94083.75;5026351;28;20217;-55
2022/09/28 09:05:04;;;;;;;12.30;5.60;;;31.50;55.70;;;32.29;37.42;94073.97;5026784;28;20225;-56
2022/09/28 09:07:47;;;;;;;9.30;5.23;;;31.70;55.50;;;32.50;37.29;94090.78;5025782;28;20221;-55
2022/09/28 09:10:34;;;;;;;14.70;6.67;;;31.90;55.00;;;32.63;35.78;94078.31;5023659;28;20282;-56
2022/09/28 09:13:11;;;;;;;9.40;5.13;;;32.00;54.30;;;32.63;37.04;94070.16;5024918;28;20205;-54
2022/09/28 09:15:46;;;;;;;14.07;5.50;;;32.10;54.30;;;32.53;36.40;94061.06;5023314;28;20287;-57
2022/09/28 09:18:22;;;;;;;9.90;5.50;;;32.10;53.20;;;32.36;37.08;94060.78;5025517;28;20257;-55
2022/09/28 09:20:55;;;;;;;9.87;5.50;;;31.90;53.40;;;32.39;36.84;94064.84;5026020;28;20816;-56
2022/09/28 09:23:33;;;;;;;13.87;5.23;;;31.90;53.60;;;32.49;36.97;94051.84;5021701;28;20221;-55
2022/09/28 09:26:05;;;;;;;11.70;5.47;;;31.90;53.50;;;32.62;36.50;94046.75;5024719;28;20756;-55
2022/09/28 09:28:49;;;;;;;14.60;5.65;;;32.00;52.90;;;32.70;35.65;94059.69;5022932;28;20205;-57
2022/09/28 09:31:27;;;;;;;6.32;4.43;;;32.10;52.10;;;32.77;36.04;94048.44;5022088;28;20205;-54
2022/09/28 09:34:18;;;;;;;10.10;4.28;;;32.20;52.20;;;32.81;34.82;94052.97;5025450;28;20628;-56
2022/09/28 09:36:58;;;;;;;16.95;4.47;;;32.20;51.30;;;32.63;34.40;94045.66;5025393;28;20198;-57
2022/09/28 09:39:39;;;;;;;11.38;4.68;;;32.20;51.10;;;32.34;34.40;94046.66;5026248;28;20228;-55
2022/09/28 09:42:19;;;;;;;4.78;4.07;;;31.90;50.10;;;32.03;34.67;94038.97;5023992;28;20757;-56
2022/09/28 09:45:03;;;;;;;7.77;3.50;;;31.70;50.00;;;31.93;35.57;94030.94;5023275;28;20680;-55
2022/09/28 09:47:33;;;;;;;8.00;3.90;;;31.50;51.20;;;31.99;35.82;94037.91;5023125;28;20533;-56
2022/09/28 09:50:04;;;;;;;10.52;4.68;;;31.40;51.70;;;31.96;36.31;94035.78;5025964;28;20275;-57
2022/09/28 09:52:37;;;;;;;11.18;5.22;;;31.40;51.70;;;31.96;36.18;94043.94;5021822;28;20213;-56
2022/09/28 09:55:08;;;;;;;10.18;4.32;;;31.40;51.70;;;31.95;36.26;94037.72;5023830;28;20689;-56
2022/09/28 09:57:39;;;;;;;17.13;5.13;;;31.40;51.70;;;31.80;36.34;94030.56;5025440;28;20323;-57
2022/09/28 10:00:12;;;;;;;12.93;5.18;;;31.30;51.70;;;31.68;36.84;94041.09;5025911;28;20614;-56
2022/09/28 10:02:40;;;;;;;15.05;4.80;;;31.20;52.30;;;31.63;37.31;94039.25;5025281;28;20281;-57
2022/09/28 10:05:17;;;;;;;18.10;4.53;;;31.10;52.70;;;31.68;35.82;94030.19;5025592;28;20237;-55
2022/09/28 10:07:49;;;;;;;21.48;4.15;;;31.10;52.60;;;31.65;36.83;94036.22;5025599;28;20275;-55
2022/09/28 10:10:20;;;;;;;6.97;4.10;;;31.00;52.40;;;31.45;37.08;94035.38;5023917;28;20589;-57
2022/09/28 10:12:48;;;;;;;24.47;4.47;;;30.90;52.50;;;31.27;37.18;94033.44;5025844;28;20221;-56
2022/09/28 10:15:19;;;;;;;16.17;4.28;;;30.70;52.50;;;31.22;37.75;94026.16;5025355;28;20299;-56
2022/09/28 10:17:46;;;;;;;5.43;3.40;;;30.70;53.10;;;31.31;37.37;94023.63;5024614;28;20717;-56
2022/09/28 10:20:13;;;;;;;16.70;3.88;;;30.70;52.80;;;31.48;37.18;94014.16;5025169;28;20221;-57
2022/09/28 10:22:41;;;;;;;7.43;2.90;;;30.80;52.90;;;31.66;36.32;94026.97;5025481;28;20205;-57
2022/09/28 10:25:10;;;;;;;9.70;3.10;;;31.00;52.00;;;31.66;34.54;94010.66;5025529;28;20230;-55
2022/09/28 10:27:40;;;;;;;4.65;1.40;;;31.00;49.20;;;31.68;33.20;94007.66;5025748;28;20662;-57
2022/09/28 10:30:16;;;;;;;3.38;1.52;;;31.00;47.70;;;31.28;32.92;94010.63;5025084;28;20253;-56
2022/09/28 10:32:44;;;;;;;5.85;1.55;;;30.80;47.20;;;31.04;34.28;94006.00;5025673;28;20276;-57